createdAt,value
2018-06-14T00:00:54.159Z,15.42
2018-06-14T00:03:22.942Z,15.44
2018-06-14T00:05:51.917Z,15.41
2018-06-14T00:08:20.847Z,15.47
2018-06-14T00:10:49.805Z,15.45
2018-06-14T00:13:18.949Z,15.46
2018-06-14T00:15:47.791Z,15.50
2018-06-14T00:18:16.760Z,15.55
2018-06-14T00:20:45.512Z,15.60
2018-06-14T00:23:14.186Z,15.59
2018-06-14T00:25:43.512Z,15.52
2018-06-14T00:28:12.462Z,15.49
2018-06-14T00:30:41.548Z,15.46
2018-06-14T00:33:10.534Z,15.50
2018-06-14T00:35:41.143Z,15.51
2018-06-14T00:38:10.308Z,15.58
2018-06-14T00:40:39.430Z,15.44
2018-06-14T00:43:08.203Z,15.48
2018-06-14T00:45:37.206Z,15.54
2018-06-14T00:48:06.124Z,15.61
2018-06-14T00:50:35.051Z,15.46
2018-06-14T00:53:03.963Z,15.51
2018-06-14T00:55:32.946Z,15.58
2018-06-14T00:58:01.719Z,15.53
2018-06-14T01:00:30.806Z,15.58
2018-06-14T01:02:59.645Z,15.61
2018-06-14T01:05:28.794Z,15.66
2018-06-14T01:07:57.794Z,15.63
2018-06-14T01:10:26.589Z,15.67
2018-06-14T01:12:55.442Z,15.69
2018-06-14T01:15:24.294Z,15.71
2018-06-14T01:17:53.138Z,15.70
2018-06-14T01:20:22.046Z,15.72
2018-06-14T01:22:50.954Z,15.64
2018-06-14T01:25:19.857Z,15.65
2018-06-14T01:27:49.004Z,15.56
2018-06-14T01:30:17.817Z,15.54
2018-06-14T01:32:46.746Z,15.51
2018-06-14T01:35:15.623Z,15.49
2018-06-14T01:37:55.466Z,15.56
2018-06-14T01:40:24.392Z,15.50
2018-06-14T01:42:53.209Z,15.48
2018-06-14T01:45:22.966Z,15.48
2018-06-14T01:47:52.056Z,15.72
2018-06-14T01:50:20.828Z,15.55
2018-06-14T01:52:49.716Z,15.59
2018-06-14T01:55:18.521Z,15.66
2018-06-14T01:57:47.382Z,15.61
2018-06-14T02:00:16.199Z,15.62
2018-06-14T02:02:44.968Z,15.47
2018-06-14T02:05:13.846Z,15.51
2018-06-14T02:07:42.966Z,15.52
2018-06-14T02:10:11.831Z,15.60
2018-06-14T02:12:40.689Z,15.62
2018-06-14T02:15:09.566Z,15.59
2018-06-14T02:17:38.467Z,15.50
2018-06-14T02:20:07.302Z,15.52
2018-06-14T02:22:36.257Z,15.52
2018-06-14T02:25:05.184Z,15.52
2018-06-14T02:27:34.039Z,15.49
2018-06-14T02:30:02.871Z,15.54
2018-06-14T02:32:31.689Z,15.52
2018-06-14T02:35:00.667Z,15.47
2018-06-14T02:37:29.771Z,15.58
2018-06-14T02:39:58.704Z,15.60
2018-06-14T02:42:27.457Z,15.59
2018-06-14T02:44:56.670Z,15.61
2018-06-14T02:47:25.418Z,15.65
2018-06-14T02:49:54.327Z,15.62
2018-06-14T02:52:23.146Z,15.66
2018-06-14T02:54:51.990Z,15.68
2018-06-14T02:57:20.986Z,15.60
2018-06-14T02:59:49.881Z,15.47
2018-06-14T03:02:18.842Z,15.54
2018-06-14T03:04:47.759Z,15.56
2018-06-14T03:07:21.837Z,15.56
2018-06-14T03:09:50.648Z,15.56
2018-06-14T03:12:19.497Z,15.62
2018-06-14T03:14:49.681Z,15.62
2018-06-14T03:17:20.118Z,15.51
2018-06-14T03:19:50.011Z,15.56
2018-06-14T03:22:19.296Z,15.54
2018-06-14T03:24:48.398Z,15.51
2018-06-14T03:27:17.727Z,15.54
2018-06-14T03:29:46.869Z,15.51
2018-06-14T03:32:15.922Z,15.57
2018-06-14T03:34:44.695Z,15.65
2018-06-14T03:37:13.797Z,15.62
2018-06-14T03:39:42.849Z,15.71
2018-06-14T03:42:14.895Z,15.63
2018-06-14T03:44:44.437Z,15.69
2018-06-14T03:47:13.511Z,15.66
2018-06-14T03:49:43.282Z,15.63
2018-06-14T03:52:16.551Z,15.60
2018-06-14T03:54:45.357Z,15.60
2018-06-14T03:57:14.779Z,15.63
2018-06-14T03:59:43.690Z,15.62
2018-06-14T04:02:12.965Z,15.71
2018-06-14T04:04:41.746Z,15.73
2018-06-14T04:07:10.666Z,15.78
2018-06-14T04:09:39.633Z,15.85
2018-06-14T04:12:08.448Z,15.92
2018-06-14T04:14:37.328Z,15.95
2018-06-14T04:17:06.224Z,15.94
2018-06-14T04:19:34.984Z,15.90
2018-06-14T04:22:03.942Z,15.81
2018-06-14T04:24:32.782Z,15.85
2018-06-14T04:27:01.664Z,15.90
2018-06-14T04:29:30.497Z,15.91
2018-06-14T04:31:59.193Z,15.88
2018-06-14T04:34:28.098Z,15.92
2018-06-14T04:36:56.938Z,15.98
2018-06-14T04:39:25.701Z,15.98
2018-06-14T04:41:54.628Z,16.00
2018-06-14T04:44:23.393Z,16.04
2018-06-14T04:46:52.138Z,15.96
2018-06-14T04:49:21.104Z,16.06
2018-06-14T04:51:49.938Z,15.95
2018-06-14T04:54:18.899Z,16.14
2018-06-14T04:56:47.874Z,15.90
2018-06-14T04:59:16.658Z,15.95
2018-06-14T05:01:45.481Z,15.89
2018-06-14T05:04:14.879Z,15.81
2018-06-14T05:06:44.282Z,15.99
2018-06-14T05:09:14.568Z,16.05
2018-06-14T05:11:43.238Z,16.03
2018-06-14T05:14:12.142Z,16.14
2018-06-14T05:16:40.961Z,16.17
2018-06-14T05:19:09.839Z,15.81
2018-06-14T05:21:38.747Z,15.91
2018-06-14T05:24:07.719Z,15.81
2018-06-14T05:26:36.630Z,16.10
2018-06-14T05:29:06.180Z,16.21
2018-06-14T05:31:35.357Z,16.34
2018-06-14T05:34:04.420Z,16.20
2018-06-14T05:36:33.293Z,16.19
2018-06-14T05:39:02.222Z,16.28
2018-06-14T05:41:31.140Z,16.33
2018-06-14T05:44:00.098Z,16.45
2018-06-14T05:46:29.130Z,16.51
2018-06-14T05:48:58.228Z,16.45
2018-06-14T05:51:27.229Z,16.61
2018-06-14T05:53:56.413Z,16.69
2018-06-14T05:56:25.435Z,16.84
2018-06-14T05:58:54.669Z,16.91
2018-06-14T06:01:23.614Z,16.57
2018-06-14T06:03:52.377Z,16.87
2018-06-14T06:06:21.414Z,16.98
2018-06-14T06:08:50.327Z,17.02
2018-06-14T06:11:19.074Z,16.94
2018-06-14T06:13:47.886Z,16.88
2018-06-14T06:16:16.690Z,17.09
2018-06-14T06:18:45.571Z,17.22
2018-06-14T06:21:14.352Z,17.29
2018-06-14T06:23:43.360Z,17.49
2018-06-14T06:26:12.296Z,17.47
2018-06-14T06:28:41.977Z,17.52
2018-06-14T06:31:10.868Z,17.62
2018-06-14T06:33:40.155Z,17.68
2018-06-14T06:36:09.035Z,17.74
2018-06-14T06:38:37.958Z,17.92
2018-06-14T06:41:07.110Z,18.03
2018-06-14T06:43:35.944Z,18.08
2018-06-14T06:46:05.122Z,18.05
2018-06-14T06:48:33.861Z,18.13
2018-06-14T06:51:02.775Z,18.15
2018-06-14T06:53:31.663Z,18.30
2018-06-14T06:56:00.652Z,18.27
2018-06-14T06:58:29.724Z,18.16
2018-06-14T07:00:58.820Z,18.17
2018-06-14T07:03:27.866Z,18.25
2018-06-14T07:05:56.896Z,18.42
2018-06-14T07:08:25.618Z,18.44
2018-06-14T07:10:54.612Z,18.53
2018-06-14T07:13:23.659Z,18.13
2018-06-14T07:15:52.759Z,18.48
2018-06-14T07:18:21.819Z,18.33
2018-06-14T07:20:51.229Z,18.61
2018-06-14T07:23:20.529Z,18.50
2018-06-14T07:25:49.511Z,18.70
2018-06-14T07:28:18.508Z,18.82
2018-06-14T07:30:47.483Z,18.58
2018-06-14T07:33:16.574Z,18.60
2018-06-14T07:35:45.410Z,18.39
2018-06-14T07:38:14.533Z,18.51
2018-06-14T07:40:43.401Z,18.46
2018-06-14T07:43:12.362Z,18.20
2018-06-14T07:45:41.368Z,18.23
2018-06-14T07:48:10.253Z,18.32
2018-06-14T07:50:39.090Z,18.33
2018-06-14T07:53:08.116Z,18.13
2018-06-14T07:55:37.050Z,18.19
2018-06-14T07:58:06.043Z,18.06
2018-06-14T08:00:35.126Z,18.10
2018-06-14T08:03:04.063Z,18.09
2018-06-14T08:05:33.285Z,18.02
2018-06-14T08:08:02.174Z,17.98
2018-06-14T08:10:31.182Z,17.91
2018-06-14T08:13:00.704Z,17.81
2018-06-14T08:15:29.554Z,17.78
2018-06-14T08:17:58.303Z,17.69
2018-06-14T08:20:27.385Z,17.76
2018-06-14T08:22:56.242Z,17.74
2018-06-14T08:25:25.206Z,17.78
2018-06-14T08:27:54.233Z,17.70
2018-06-14T08:30:23.240Z,17.73
2018-06-14T08:32:52.023Z,17.55
2018-06-14T08:35:20.909Z,17.73
2018-06-14T08:37:50.059Z,17.73
2018-06-14T08:40:18.899Z,17.76
2018-06-14T08:42:47.914Z,17.70
2018-06-14T08:45:16.790Z,17.75
2018-06-14T08:47:45.478Z,17.80
2018-06-14T08:50:14.273Z,17.67
2018-06-14T08:52:43.593Z,17.64
2018-06-14T08:55:12.958Z,17.67
2018-06-14T08:57:42.340Z,17.75
2018-06-14T09:00:11.395Z,17.96
2018-06-14T09:02:40.405Z,17.86
2018-06-14T09:05:09.413Z,17.95
2018-06-14T09:07:39.029Z,17.86
2018-06-14T09:10:07.916Z,17.77
2018-06-14T09:12:36.974Z,17.63
2018-06-14T09:15:09.647Z,17.75
2018-06-14T09:17:38.521Z,17.40
2018-06-14T09:20:24.779Z,17.56
2018-06-14T09:22:53.875Z,17.92
2018-06-14T09:25:23.137Z,17.78
2018-06-14T09:27:52.094Z,17.95
2018-06-14T09:30:20.990Z,18.03
2018-06-14T09:32:49.793Z,18.22
2018-06-14T09:35:18.622Z,18.09
2018-06-14T09:37:47.735Z,18.23
2018-06-14T09:40:16.606Z,18.53
2018-06-14T09:42:46.171Z,18.55
2018-06-14T09:45:15.214Z,18.60
2018-06-14T09:47:43.992Z,18.65
2018-06-14T09:50:12.756Z,18.76
2018-06-14T09:52:41.610Z,18.94
2018-06-14T09:55:10.556Z,19.18
2018-06-14T09:57:39.409Z,19.31
2018-06-14T10:00:09.328Z,19.33
2018-06-14T10:02:38.019Z,19.43
2018-06-14T10:05:06.950Z,19.59
2018-06-14T10:07:35.818Z,19.83
2018-06-14T10:10:04.857Z,19.84
2018-06-14T10:12:35.342Z,19.87
2018-06-14T10:15:05.749Z,19.41
2018-06-14T10:17:35.178Z,19.76
2018-06-14T10:20:04.196Z,20.07
2018-06-14T10:22:32.907Z,20.04
2018-06-14T10:25:01.638Z,20.38
2018-06-14T10:27:30.447Z,20.81
2018-06-14T10:29:59.324Z,20.28
2018-06-14T10:32:28.132Z,21.17
2018-06-14T10:34:57.858Z,21.01
2018-06-14T10:37:26.647Z,20.46
2018-06-14T10:39:55.683Z,20.92
2018-06-14T10:42:24.504Z,20.81
2018-06-14T10:44:53.380Z,20.96
2018-06-14T10:47:22.318Z,20.86
2018-06-14T10:49:51.186Z,21.13
2018-06-14T10:52:20.238Z,21.51
2018-06-14T10:54:49.246Z,21.50
2018-06-14T10:57:18.439Z,21.33
2018-06-14T10:59:47.245Z,21.40
2018-06-14T11:02:15.984Z,21.64
2018-06-14T11:04:44.853Z,21.46
2018-06-14T11:07:13.806Z,21.47
2018-06-14T11:09:42.521Z,21.72
2018-06-14T11:12:11.422Z,21.45
2018-06-14T11:14:40.600Z,21.47
2018-06-14T11:17:09.518Z,21.61
2018-06-14T11:19:38.253Z,21.57
2018-06-14T11:22:07.357Z,21.50
2018-06-14T11:24:36.215Z,21.46
2018-06-14T11:27:05.223Z,21.77
2018-06-14T11:29:36.584Z,21.89
2018-06-14T11:32:05.605Z,21.89
2018-06-14T11:34:34.395Z,21.92
2018-06-14T11:37:03.581Z,21.67
2018-06-14T11:39:32.457Z,21.52
2018-06-14T11:42:01.578Z,21.36
2018-06-14T11:44:30.414Z,21.14
2018-06-14T11:46:59.329Z,21.02
2018-06-14T11:49:28.354Z,20.94
2018-06-14T11:51:57.158Z,21.28
2018-06-14T11:54:26.092Z,21.01
2018-06-14T11:56:55.074Z,20.39
2018-06-14T11:59:24.013Z,20.66
2018-06-14T12:01:52.825Z,21.19
2018-06-14T12:04:21.763Z,20.97
2018-06-14T12:06:50.568Z,21.05
2018-06-14T12:09:19.676Z,21.47
2018-06-14T12:11:48.473Z,21.61
2018-06-14T12:14:17.679Z,21.47
2018-06-14T12:16:46.481Z,22.03
2018-06-14T12:19:15.399Z,22.25
2018-06-14T12:21:44.395Z,22.36
2018-06-14T12:24:13.209Z,21.96
2018-06-14T12:26:42.028Z,20.81
2018-06-14T12:29:10.903Z,20.92
2018-06-14T12:31:40.247Z,20.48
2018-06-14T12:34:10.062Z,21.77
2018-06-14T12:36:38.834Z,21.99
2018-06-14T12:39:08.958Z,22.24
2018-06-14T12:41:38.042Z,22.29
2018-06-14T12:44:07.010Z,22.64
2018-06-14T12:46:35.910Z,23.21
2018-06-14T12:49:04.829Z,23.27
2018-06-14T12:51:34.301Z,23.00
2018-06-14T12:54:04.314Z,23.04
2018-06-14T12:56:33.327Z,23.20
2018-06-14T12:59:02.644Z,22.95
2018-06-14T13:01:31.819Z,23.21
2018-06-14T13:04:00.667Z,23.11
2018-06-14T13:06:29.398Z,23.13
2018-06-14T13:08:58.517Z,23.10
2018-06-14T13:11:27.343Z,23.39
2018-06-14T13:13:56.772Z,23.13
2018-06-14T13:16:25.496Z,23.08
2018-06-14T13:18:54.258Z,22.44
2018-06-14T13:21:23.690Z,22.37
2018-06-14T13:23:52.771Z,22.89
2018-06-14T13:26:21.542Z,22.86
2018-06-14T13:28:50.767Z,21.78
2018-06-14T13:31:19.530Z,22.44
2018-06-14T13:33:48.429Z,22.76
2018-06-14T13:36:17.326Z,22.52
2018-06-14T13:38:46.364Z,22.64
2018-06-14T13:41:15.285Z,22.47
2018-06-14T13:43:44.117Z,22.35
2018-06-14T13:46:13.211Z,22.41
2018-06-14T13:48:42.207Z,22.78
2018-06-14T13:51:11.271Z,22.79
2018-06-14T13:53:40.167Z,22.48
2018-06-14T13:56:09.791Z,22.80
2018-06-14T13:58:38.801Z,22.66
2018-06-14T14:01:08.958Z,22.91
2018-06-14T14:03:37.855Z,22.79
2018-06-14T14:06:06.830Z,22.78
2018-06-14T14:08:37.128Z,22.92
2018-06-14T14:11:06.110Z,22.85
2018-06-14T14:13:35.126Z,22.66
2018-06-14T14:16:04.017Z,22.38
2018-06-14T14:18:32.800Z,22.61
2018-06-14T14:21:01.692Z,22.97
2018-06-14T14:23:30.504Z,23.25
2018-06-14T14:25:59.381Z,23.14
2018-06-14T14:28:28.436Z,23.00
2018-06-14T14:30:57.347Z,22.81
2018-06-14T14:33:26.209Z,22.81
2018-06-14T14:35:55.058Z,23.08
2018-06-14T14:38:24.246Z,23.31
2018-06-14T14:40:53.090Z,23.64
2018-06-14T14:43:22.122Z,24.19
2018-06-14T14:45:51.120Z,23.57
2018-06-14T14:48:20.002Z,23.89
2018-06-14T14:50:49.075Z,22.53
2018-06-14T14:53:17.955Z,22.55
2018-06-14T14:55:46.882Z,22.07
2018-06-14T14:58:15.754Z,21.97
2018-06-14T15:00:44.762Z,21.95
2018-06-14T15:03:13.538Z,21.64
2018-06-14T15:05:42.430Z,21.48
2018-06-14T15:08:11.395Z,21.68
2018-06-14T15:10:40.142Z,21.58
2018-06-14T15:13:09.177Z,21.86
2018-06-14T15:15:38.110Z,21.85
2018-06-14T15:18:07.545Z,21.40
2018-06-14T15:20:36.406Z,21.58
2018-06-14T15:23:05.716Z,21.72
2018-06-14T15:25:34.525Z,21.75
2018-06-14T15:28:03.330Z,21.92
2018-06-14T15:30:32.149Z,21.76
2018-06-14T15:33:01.095Z,21.84
2018-06-14T15:35:29.860Z,21.36
2018-06-14T15:37:58.758Z,21.62
2018-06-14T15:40:27.846Z,22.05
2018-06-14T15:42:56.682Z,21.88
2018-06-14T15:45:25.574Z,22.28
2018-06-14T15:47:54.871Z,22.08
2018-06-14T15:50:24.090Z,22.33
2018-06-14T15:52:53.182Z,22.43
2018-06-14T15:56:42.781Z,21.44
2018-06-14T15:59:13.055Z,21.93
2018-06-14T16:01:41.901Z,22.14
2018-06-14T16:04:11.015Z,22.13
2018-06-14T16:06:39.864Z,23.21
2018-06-14T16:09:10.061Z,24.07
2018-06-14T16:11:38.856Z,24.20
2018-06-14T16:14:08.026Z,24.63
2018-06-14T16:16:36.945Z,23.80
2018-06-14T16:19:05.990Z,23.22
2018-06-14T16:21:35.195Z,21.83
2018-06-14T16:24:04.149Z,21.54
2018-06-14T16:26:33.157Z,21.41
2018-06-14T16:29:02.031Z,21.01
2018-06-14T16:31:30.864Z,21.09
2018-06-14T16:33:59.764Z,21.33
2018-06-14T16:36:28.936Z,21.36
2018-06-14T16:38:57.879Z,21.21
2018-06-14T16:41:26.686Z,20.93
2018-06-14T16:43:55.964Z,21.43
2018-06-14T16:46:24.895Z,21.80
2018-06-14T16:48:53.817Z,21.89
2018-06-14T16:51:22.758Z,22.40
2018-06-14T16:53:51.427Z,22.87
2018-06-14T16:56:20.162Z,21.89
2018-06-14T16:58:49.002Z,22.32
2018-06-14T17:01:17.973Z,22.58
2018-06-14T17:03:47.335Z,22.95
2018-06-14T17:06:16.249Z,23.14
2018-06-14T17:08:44.935Z,23.06
2018-06-14T17:11:13.894Z,22.59
2018-06-14T17:13:42.885Z,23.08
2018-06-14T17:16:11.744Z,22.12
2018-06-14T17:18:40.701Z,21.85
2018-06-14T17:21:09.650Z,21.58
2018-06-14T17:23:38.694Z,22.27
2018-06-14T17:26:07.447Z,21.81
2018-06-14T17:28:36.473Z,21.97
2018-06-14T17:31:05.541Z,21.56
2018-06-14T17:33:34.361Z,21.68
2018-06-14T17:36:03.167Z,22.10
2018-06-14T17:38:32.152Z,22.27
2018-06-14T17:41:01.312Z,21.73
2018-06-14T17:43:30.399Z,21.87
2018-06-14T17:45:59.905Z,21.99
2018-06-14T17:48:29.242Z,22.59
2018-06-14T17:50:58.520Z,23.21
2018-06-14T17:53:27.999Z,23.45
2018-06-14T17:55:57.234Z,23.91
2018-06-14T17:58:26.066Z,24.51
2018-06-14T18:00:55.152Z,23.90
2018-06-14T18:03:24.161Z,24.64
2018-06-14T18:05:53.286Z,22.71
2018-06-14T18:08:22.251Z,22.52
2018-06-14T18:10:51.326Z,22.63
2018-06-14T18:13:20.390Z,21.64
2018-06-14T18:15:49.082Z,20.97
2018-06-14T18:18:18.205Z,20.63
2018-06-14T18:20:47.096Z,20.22
2018-06-14T18:23:16.301Z,20.07
2018-06-14T18:25:45.274Z,19.85
2018-06-14T18:28:14.346Z,19.78
2018-06-14T18:30:43.482Z,19.91
2018-06-14T18:33:12.374Z,19.84
2018-06-14T18:35:41.401Z,19.65
2018-06-14T18:38:10.337Z,19.68
2018-06-14T18:40:39.419Z,19.72
2018-06-14T18:43:08.357Z,19.51
2018-06-14T18:45:37.382Z,19.50
2018-06-14T18:48:06.987Z,19.57
2018-06-14T18:50:35.983Z,19.54
2018-06-14T18:53:05.252Z,19.59
2018-06-14T18:55:34.208Z,19.44
2018-06-14T18:58:03.163Z,19.48
2018-06-14T19:00:32.036Z,19.40
2018-06-14T19:03:00.989Z,19.44
2018-06-14T19:05:29.928Z,19.30
2018-06-14T19:07:59.107Z,19.34
2018-06-14T19:10:28.153Z,19.40
2018-06-14T19:12:57.095Z,19.32
2018-06-14T19:15:26.114Z,19.28
2018-06-14T19:17:54.882Z,19.21
2018-06-14T19:20:24.534Z,19.18
2018-06-14T19:22:53.368Z,19.19
2018-06-14T19:25:22.845Z,19.31
2018-06-14T19:27:52.033Z,19.16
2018-06-14T19:30:20.947Z,19.18
2018-06-14T19:32:49.627Z,18.99
2018-06-14T19:35:18.606Z,19.12
2018-06-14T19:37:47.469Z,19.03
2018-06-14T19:40:16.457Z,18.84
2018-06-14T19:42:45.354Z,18.85
2018-06-14T19:45:14.177Z,18.82
2018-06-14T19:47:43.007Z,18.74
2018-06-14T19:50:12.542Z,18.67
2018-06-14T19:52:41.405Z,18.59
2018-06-14T19:55:10.185Z,18.55
2018-06-14T19:57:39.076Z,18.54
2018-06-14T20:00:07.940Z,18.58
2018-06-14T20:02:37.498Z,18.51
2018-06-14T20:05:06.473Z,18.51
2018-06-14T20:07:35.395Z,18.47
2018-06-14T20:10:04.463Z,18.57
2018-06-14T20:12:33.385Z,18.52
2018-06-14T20:15:02.291Z,18.53
2018-06-14T20:17:31.330Z,18.53
2018-06-14T20:20:01.894Z,18.57
2018-06-14T20:22:30.832Z,18.52
2018-06-14T20:24:59.754Z,18.40
2018-06-14T20:27:28.725Z,18.45
2018-06-14T20:29:57.790Z,18.35
2018-06-14T20:32:29.676Z,18.36
2018-06-14T20:34:58.769Z,18.23
2018-06-14T20:37:27.614Z,18.19
2018-06-14T20:39:56.625Z,18.33
2018-06-14T20:42:25.626Z,18.32
2018-06-14T20:44:54.405Z,18.30
2018-06-14T20:47:23.482Z,18.23
2018-06-14T20:49:52.275Z,18.22
2018-06-14T20:52:21.143Z,18.28
2018-06-14T20:54:50.030Z,18.27
2018-06-14T20:57:19.083Z,18.37
2018-06-14T20:59:48.155Z,18.38
2018-06-14T21:02:19.108Z,18.35
2018-06-14T21:04:49.334Z,18.37
2018-06-14T21:07:19.434Z,18.22
2018-06-14T21:09:49.017Z,18.24
2018-06-14T21:12:17.950Z,18.24
2018-06-14T21:14:47.428Z,18.23
2018-06-14T21:17:16.251Z,18.05
2018-06-14T21:19:45.220Z,18.08
2018-06-14T21:22:14.365Z,18.13
2018-06-14T21:24:43.454Z,18.06
2018-06-14T21:27:12.430Z,18.03
2018-06-14T21:29:41.514Z,18.01
2018-06-14T21:32:12.543Z,17.98
2018-06-14T21:34:41.502Z,17.92
2018-06-14T21:37:10.642Z,17.82
2018-06-14T21:39:39.995Z,17.86
2018-06-14T21:42:09.031Z,17.77
2018-06-14T21:44:37.845Z,17.82
2018-06-14T21:47:06.814Z,17.82
2018-06-14T21:49:35.652Z,17.83
2018-06-14T21:52:04.773Z,17.76
2018-06-14T21:54:33.591Z,17.56
2018-06-14T21:57:02.585Z,17.51
2018-06-14T21:59:31.566Z,17.48
2018-06-14T22:02:00.586Z,17.54
2018-06-14T22:04:29.401Z,17.50
2018-06-14T22:06:58.330Z,17.38
2018-06-14T22:09:27.407Z,17.31
2018-06-14T22:11:56.318Z,17.21
2018-06-14T22:14:25.359Z,17.18
2018-06-14T22:16:54.201Z,17.14
2018-06-14T22:19:23.136Z,17.08
2018-06-14T22:21:52.206Z,16.98
2018-06-14T22:24:21.178Z,16.92
2018-06-14T22:26:50.286Z,16.91
2018-06-14T22:29:19.217Z,16.76
2018-06-14T22:31:48.242Z,16.65
2018-06-14T22:34:28.189Z,16.62
2018-06-14T22:36:57.518Z,16.63
2018-06-14T22:39:26.921Z,16.64
2018-06-14T22:41:55.838Z,16.63
2018-06-14T22:44:25.132Z,16.54
2018-06-14T22:46:54.110Z,16.53
2018-06-14T22:49:23.242Z,16.55
2018-06-14T22:53:02.346Z,16.53
2018-06-14T22:55:31.340Z,16.52
2018-06-14T22:58:00.329Z,16.53
2018-06-14T23:01:50.964Z,16.44
2018-06-14T23:04:25.259Z,16.35
2018-06-14T23:06:54.488Z,16.29
2018-06-14T23:10:35.957Z,16.27
2018-06-14T23:13:05.452Z,16.18
2018-06-14T23:15:34.291Z,16.11
2018-06-14T23:18:03.396Z,16.11
2018-06-14T23:20:33.453Z,15.96
2018-06-14T23:23:03.285Z,15.87
2018-06-14T23:25:32.753Z,15.88
2018-06-14T23:28:01.597Z,15.87
2018-06-14T23:30:30.490Z,15.89
2018-06-14T23:32:59.555Z,15.83
2018-06-14T23:35:28.454Z,15.77
2018-06-14T23:37:57.425Z,15.71
2018-06-14T23:40:26.451Z,15.67
2018-06-14T23:42:55.426Z,15.61
2018-06-14T23:45:24.533Z,15.53
2018-06-14T23:47:53.350Z,15.52
2018-06-14T23:50:22.404Z,15.46
2018-06-14T23:52:51.253Z,15.50
2018-06-14T23:55:19.976Z,15.55
2018-06-14T23:57:48.993Z,15.56
